sensor_id;sensor_type;location;lat;lon;timestamp;temperature;humidity
26907;DHT22;14472;56.880;16.658;2023-05-20T00:00:28;10.40;1.00
26907;DHT22;14472;56.880;16.658;2023-05-20T00:02:54;10.30;1.00
26907;DHT22;14472;56.880;16.658;2023-05-20T00:05:24;10.40;1.00
26907;DHT22;14472;56.880;16.658;2023-05-20T00:07:50;10.30;1.00
26907;DHT22;14472;56.880;16.658;2023-05-20T00:10:15;10.30;1.00
26907;DHT22;14472;56.880;16.658;2023-05-20T00:12:41;10.30;1.00
26907;DHT22;14472;56.880;16.658;2023-05-20T00:15:08;10.30;1.00
26907;DHT22;14472;56.880;16.658;2023-05-20T00:17:33;10.30;1.00
26907;DHT22;14472;56.880;16.658;2023-05-20T00:19:59;10.30;1.00
26907;DHT22;14472;56.880;16.658;2023-05-20T00:22:25;10.30;1.00
26907;DHT22;14472;56.880;16.658;2023-05-20T00:24:51;10.30;1.00
26907;DHT22;14472;56.880;16.658;2023-05-20T00:27:17;10.30;1.00
26907;DHT22;14472;56.880;16.658;2023-05-20T00:29:42;10.30;1.00
26907;DHT22;14472;56.880;16.658;2023-05-20T00:32:09;10.30;1.00
26907;DHT22;14472;56.880;16.658;2023-05-20T00:34:35;10.30;1.00
26907;DHT22;14472;56.880;16.658;2023-05-20T00:37:01;10.30;1.00
26907;DHT22;14472;56.880;16.658;2023-05-20T00:39:27;10.30;1.00
26907;DHT22;14472;56.880;16.658;2023-05-20T00:41:55;10.30;1.00
26907;DHT22;14472;56.880;16.658;2023-05-20T00:44:25;10.30;1.00
26907;DHT22;14472;56.880;16.658;2023-05-20T00:46:51;10.30;1.00
26907;DHT22;14472;56.880;16.658;2023-05-20T00:49:18;10.30;1.00
26907;DHT22;14472;56.880;16.658;2023-05-20T00:51:45;10.20;1.00
26907;DHT22;14472;56.880;16.658;2023-05-20T00:54:11;10.20;1.00
26907;DHT22;14472;56.880;16.658;2023-05-20T00:56:38;10.20;1.00
26907;DHT22;14472;56.880;16.658;2023-05-20T00:59:04;10.20;1.00
26907;DHT22;14472;56.880;16.658;2023-05-20T01:01:31;10.20;1.00
26907;DHT22;14472;56.880;16.658;2023-05-20T01:03:58;10.20;1.00
26907;DHT22;14472;56.880;16.658;2023-05-20T01:06:24;10.20;1.00
26907;DHT22;14472;56.880;16.658;2023-05-20T01:08:51;10.20;1.00
26907;DHT22;14472;56.880;16.658;2023-05-20T01:11:24;10.10;1.00
26907;DHT22;14472;56.880;16.658;2023-05-20T01:13:55;10.10;1.00
26907;DHT22;14472;56.880;16.658;2023-05-20T01:16:24;10.20;1.00
26907;DHT22;14472;56.880;16.658;2023-05-20T01:18:55;10.20;1.00
26907;DHT22;14472;56.880;16.658;2023-05-20T01:21:23;10.20;1.00
26907;DHT22;14472;56.880;16.658;2023-05-20T01:23:51;10.20;1.00
26907;DHT22;14472;56.880;16.658;2023-05-20T01:26:17;10.20;1.00
26907;DHT22;14472;56.880;16.658;2023-05-20T01:28:44;10.20;1.00
26907;DHT22;14472;56.880;16.658;2023-05-20T01:31:39;10.20;1.00
26907;DHT22;14472;56.880;16.658;2023-05-20T01:34:06;10.20;1.00
26907;DHT22;14472;56.880;16.658;2023-05-20T01:36:32;10.20;1.00
26907;DHT22;14472;56.880;16.658;2023-05-20T01:38:59;10.10;1.00
26907;DHT22;14472;56.880;16.658;2023-05-20T01:41:28;10.10;1.00
26907;DHT22;14472;56.880;16.658;2023-05-20T01:44:01;10.20;1.00
26907;DHT22;14472;56.880;16.658;2023-05-20T01:46:32;10.20;1.00
26907;DHT22;14472;56.880;16.658;2023-05-20T01:48:59;10.20;1.00
26907;DHT22;14472;56.880;16.658;2023-05-20T01:51:26;10.20;1.00
26907;DHT22;14472;56.880;16.658;2023-05-20T01:53:52;10.20;1.00
26907;DHT22;14472;56.880;16.658;2023-05-20T01:56:18;10.20;1.00
26907;DHT22;14472;56.880;16.658;2023-05-20T01:58:43;10.20;1.00
26907;DHT22;14472;56.880;16.658;2023-05-20T02:01:11;10.20;1.00
26907;DHT22;14472;56.880;16.658;2023-05-20T02:03:37;10.20;1.00
26907;DHT22;14472;56.880;16.658;2023-05-20T02:06:03;10.20;1.00
26907;DHT22;14472;56.880;16.658;2023-05-20T02:08:29;10.30;1.00
26907;DHT22;14472;56.880;16.658;2023-05-20T02:10:54;10.20;1.00
26907;DHT22;14472;56.880;16.658;2023-05-20T02:13:20;10.20;1.00
26907;DHT22;14472;56.880;16.658;2023-05-20T02:15:46;10.20;1.00
26907;DHT22;14472;56.880;16.658;2023-05-20T02:18:12;10.20;1.00
26907;DHT22;14472;56.880;16.658;2023-05-20T02:20:38;10.20;1.00
26907;DHT22;14472;56.880;16.658;2023-05-20T02:23:04;10.20;1.00
26907;DHT22;14472;56.880;16.658;2023-05-20T02:25:33;10.20;1.00
26907;DHT22;14472;56.880;16.658;2023-05-20T02:27:58;10.20;1.00
26907;DHT22;14472;56.880;16.658;2023-05-20T02:30:26;10.20;1.00
26907;DHT22;14472;56.880;16.658;2023-05-20T02:32:51;10.20;1.00
26907;DHT22;14472;56.880;16.658;2023-05-20T02:35:17;10.20;1.00
26907;DHT22;14472;56.880;16.658;2023-05-20T02:37:44;10.30;1.00
26907;DHT22;14472;56.880;16.658;2023-05-20T02:40:10;10.30;1.00
26907;DHT22;14472;56.880;16.658;2023-05-20T02:42:36;10.20;1.00
26907;DHT22;14472;56.880;16.658;2023-05-20T02:45:02;10.30;1.00
26907;DHT22;14472;56.880;16.658;2023-05-20T02:47:28;10.30;1.00
26907;DHT22;14472;56.880;16.658;2023-05-20T02:49:53;10.30;1.00
26907;DHT22;14472;56.880;16.658;2023-05-20T02:52:19;10.30;1.00
26907;DHT22;14472;56.880;16.658;2023-05-20T02:54:45;10.30;1.00
26907;DHT22;14472;56.880;16.658;2023-05-20T02:57:11;10.30;1.00
26907;DHT22;14472;56.880;16.658;2023-05-20T02:59:37;10.20;1.00
26907;DHT22;14472;56.880;16.658;2023-05-20T03:02:02;10.30;1.00
26907;DHT22;14472;56.880;16.658;2023-05-20T03:04:29;10.30;1.00
26907;DHT22;14472;56.880;16.658;2023-05-20T03:06:56;10.20;1.00
26907;DHT22;14472;56.880;16.658;2023-05-20T03:09:23;10.20;1.00
26907;DHT22;14472;56.880;16.658;2023-05-20T03:11:49;10.30;1.00
26907;DHT22;14472;56.880;16.658;2023-05-20T03:14:15;10.20;1.00
26907;DHT22;14472;56.880;16.658;2023-05-20T03:16:41;10.20;1.00
26907;DHT22;14472;56.880;16.658;2023-05-20T03:19:07;10.30;1.00
26907;DHT22;14472;56.880;16.658;2023-05-20T03:21:33;10.20;1.00
26907;DHT22;14472;56.880;16.658;2023-05-20T03:23:58;10.30;1.00
26907;DHT22;14472;56.880;16.658;2023-05-20T03:26:24;10.20;1.00
26907;DHT22;14472;56.880;16.658;2023-05-20T03:28:50;10.30;1.00
26907;DHT22;14472;56.880;16.658;2023-05-20T03:31:16;10.30;1.00
26907;DHT22;14472;56.880;16.658;2023-05-20T03:33:42;10.30;1.00
26907;DHT22;14472;56.880;16.658;2023-05-20T03:36:07;10.30;1.00
26907;DHT22;14472;56.880;16.658;2023-05-20T03:38:33;10.30;1.00
26907;DHT22;14472;56.880;16.658;2023-05-20T03:40:59;10.30;1.00
26907;DHT22;14472;56.880;16.658;2023-05-20T03:43:25;10.40;1.00
26907;DHT22;14472;56.880;16.658;2023-05-20T03:45:51;10.40;1.00
26907;DHT22;14472;56.880;16.658;2023-05-20T03:48:17;10.40;1.00
26907;DHT22;14472;56.880;16.658;2023-05-20T03:50:43;10.40;1.00
26907;DHT22;14472;56.880;16.658;2023-05-20T03:53:08;10.40;1.00
26907;DHT22;14472;56.880;16.658;2023-05-20T03:55:34;10.40;1.00
26907;DHT22;14472;56.880;16.658;2023-05-20T03:58:00;10.40;1.00
26907;DHT22;14472;56.880;16.658;2023-05-20T04:00:26;10.50;1.00
26907;DHT22;14472;56.880;16.658;2023-05-20T04:02:52;10.50;1.00
26907;DHT22;14472;56.880;16.658;2023-05-20T04:05:18;10.50;1.00
26907;DHT22;14472;56.880;16.658;2023-05-20T04:07:44;10.60;1.00
26907;DHT22;14472;56.880;16.658;2023-05-20T04:10:10;10.60;1.00
26907;DHT22;14472;56.880;16.658;2023-05-20T04:12:36;10.70;1.00
26907;DHT22;14472;56.880;16.658;2023-05-20T04:15:03;10.70;1.00
26907;DHT22;14472;56.880;16.658;2023-05-20T04:17:29;10.80;1.00
26907;DHT22;14472;56.880;16.658;2023-05-20T04:19:56;10.80;1.00
26907;DHT22;14472;56.880;16.658;2023-05-20T04:22:24;10.90;1.00
26907;DHT22;14472;56.880;16.658;2023-05-20T04:24:50;11.00;1.00
26907;DHT22;14472;56.880;16.658;2023-05-20T04:27:16;11.00;1.00
26907;DHT22;14472;56.880;16.658;2023-05-20T04:29:42;11.10;1.00
26907;DHT22;14472;56.880;16.658;2023-05-20T04:32:12;11.20;1.00
26907;DHT22;14472;56.880;16.658;2023-05-20T04:34:38;11.30;1.00
26907;DHT22;14472;56.880;16.658;2023-05-20T04:37:04;11.30;1.00
26907;DHT22;14472;56.880;16.658;2023-05-20T04:39:32;11.40;1.00
26907;DHT22;14472;56.880;16.658;2023-05-20T04:41:58;11.40;1.00
26907;DHT22;14472;56.880;16.658;2023-05-20T04:44:24;11.50;1.00
26907;DHT22;14472;56.880;16.658;2023-05-20T04:46:51;11.50;1.00
26907;DHT22;14472;56.880;16.658;2023-05-20T04:49:17;11.60;1.00
26907;DHT22;14472;56.880;16.658;2023-05-20T04:51:43;11.60;1.00
26907;DHT22;14472;56.880;16.658;2023-05-20T04:54:09;11.70;1.00
26907;DHT22;14472;56.880;16.658;2023-05-20T04:56:34;11.70;1.00
26907;DHT22;14472;56.880;16.658;2023-05-20T04:59:01;11.70;1.00
26907;DHT22;14472;56.880;16.658;2023-05-20T05:01:27;11.80;1.00
26907;DHT22;14472;56.880;16.658;2023-05-20T05:03:52;11.80;1.00
26907;DHT22;14472;56.880;16.658;2023-05-20T05:06:18;11.80;1.00
26907;DHT22;14472;56.880;16.658;2023-05-20T05:08:44;11.80;1.00
26907;DHT22;14472;56.880;16.658;2023-05-20T05:11:10;11.90;1.00
26907;DHT22;14472;56.880;16.658;2023-05-20T05:13:35;11.80;1.00
26907;DHT22;14472;56.880;16.658;2023-05-20T05:16:01;11.90;1.00
26907;DHT22;14472;56.880;16.658;2023-05-20T05:18:27;11.90;1.00
26907;DHT22;14472;56.880;16.658;2023-05-20T05:21:04;11.90;1.00
26907;DHT22;14472;56.880;16.658;2023-05-20T05:23:30;11.90;1.00
26907;DHT22;14472;56.880;16.658;2023-05-20T05:25:56;11.90;1.00
26907;DHT22;14472;56.880;16.658;2023-05-20T05:28:22;12.00;1.00
26907;DHT22;14472;56.880;16.658;2023-05-20T05:30:48;12.10;1.00
26907;DHT22;14472;56.880;16.658;2023-05-20T05:33:14;12.00;1.00
26907;DHT22;14472;56.880;16.658;2023-05-20T05:35:41;12.00;1.00
26907;DHT22;14472;56.880;16.658;2023-05-20T05:38:07;12.10;1.00
26907;DHT22;14472;56.880;16.658;2023-05-20T05:40:33;12.10;1.00
26907;DHT22;14472;56.880;16.658;2023-05-20T05:42:59;12.20;1.00
26907;DHT22;14472;56.880;16.658;2023-05-20T05:45:25;12.20;1.00
26907;DHT22;14472;56.880;16.658;2023-05-20T05:47:50;12.20;1.00
26907;DHT22;14472;56.880;16.658;2023-05-20T05:50:16;12.20;1.00
26907;DHT22;14472;56.880;16.658;2023-05-20T05:52:42;12.20;1.00
26907;DHT22;14472;56.880;16.658;2023-05-20T05:55:09;12.30;1.00
26907;DHT22;14472;56.880;16.658;2023-05-20T05:57:35;12.30;1.00
26907;DHT22;14472;56.880;16.658;2023-05-20T06:00:00;12.30;1.00
26907;DHT22;14472;56.880;16.658;2023-05-20T06:02:26;12.40;1.00
26907;DHT22;14472;56.880;16.658;2023-05-20T06:04:52;12.40;1.00
26907;DHT22;14472;56.880;16.658;2023-05-20T06:07:18;12.40;1.00
26907;DHT22;14472;56.880;16.658;2023-05-20T06:09:44;12.30;1.00
26907;DHT22;14472;56.880;16.658;2023-05-20T06:12:10;12.40;1.00
26907;DHT22;14472;56.880;16.658;2023-05-20T06:14:36;12.40;1.00
26907;DHT22;14472;56.880;16.658;2023-05-20T06:17:02;12.40;1.00
26907;DHT22;14472;56.880;16.658;2023-05-20T06:19:28;12.40;1.00
26907;DHT22;14472;56.880;16.658;2023-05-20T06:21:55;12.50;1.00
26907;DHT22;14472;56.880;16.658;2023-05-20T06:24:22;12.60;1.00
26907;DHT22;14472;56.880;16.658;2023-05-20T06:26:47;12.70;1.00
26907;DHT22;14472;56.880;16.658;2023-05-20T06:29:14;12.70;1.00
26907;DHT22;14472;56.880;16.658;2023-05-20T06:31:40;12.80;1.00
26907;DHT22;14472;56.880;16.658;2023-05-20T06:34:06;12.80;1.00
26907;DHT22;14472;56.880;16.658;2023-05-20T06:36:32;12.80;1.00
26907;DHT22;14472;56.880;16.658;2023-05-20T06:38:58;12.90;1.00
26907;DHT22;14472;56.880;16.658;2023-05-20T06:41:24;12.90;1.00
26907;DHT22;14472;56.880;16.658;2023-05-20T06:43:51;12.90;1.00
26907;DHT22;14472;56.880;16.658;2023-05-20T06:46:16;13.00;1.00
26907;DHT22;14472;56.880;16.658;2023-05-20T06:48:42;13.00;1.00
26907;DHT22;14472;56.880;16.658;2023-05-20T06:51:08;13.00;1.00
26907;DHT22;14472;56.880;16.658;2023-05-20T06:53:35;13.00;1.00
26907;DHT22;14472;56.880;16.658;2023-05-20T06:56:01;13.10;1.00
26907;DHT22;14472;56.880;16.658;2023-05-20T06:58:27;13.10;1.00
26907;DHT22;14472;56.880;16.658;2023-05-20T07:00:53;13.20;1.00
26907;DHT22;14472;56.880;16.658;2023-05-20T07:03:19;13.20;1.00
26907;DHT22;14472;56.880;16.658;2023-05-20T07:05:45;13.20;1.00
26907;DHT22;14472;56.880;16.658;2023-05-20T07:08:11;13.30;1.00
26907;DHT22;14472;56.880;16.658;2023-05-20T07:10:36;13.30;1.00
26907;DHT22;14472;56.880;16.658;2023-05-20T07:13:02;13.40;1.00
26907;DHT22;14472;56.880;16.658;2023-05-20T07:15:28;13.40;1.00
26907;DHT22;14472;56.880;16.658;2023-05-20T07:17:54;13.40;1.00
26907;DHT22;14472;56.880;16.658;2023-05-20T07:20:20;13.50;1.00
26907;DHT22;14472;56.880;16.658;2023-05-20T07:22:46;13.40;1.00
26907;DHT22;14472;56.880;16.658;2023-05-20T07:25:13;13.50;1.00
26907;DHT22;14472;56.880;16.658;2023-05-20T07:27:39;13.50;1.00
26907;DHT22;14472;56.880;16.658;2023-05-20T07:30:05;13.50;1.00
26907;DHT22;14472;56.880;16.658;2023-05-20T07:32:31;13.60;1.00
26907;DHT22;14472;56.880;16.658;2023-05-20T07:34:57;13.60;1.00
26907;DHT22;14472;56.880;16.658;2023-05-20T07:37:22;13.70;1.00
26907;DHT22;14472;56.880;16.658;2023-05-20T07:39:48;13.70;1.00
26907;DHT22;14472;56.880;16.658;2023-05-20T07:42:14;13.70;1.00
26907;DHT22;14472;56.880;16.658;2023-05-20T07:44:39;13.70;1.00
26907;DHT22;14472;56.880;16.658;2023-05-20T07:47:05;13.80;1.00
26907;DHT22;14472;56.880;16.658;2023-05-20T07:49:31;13.80;1.00
26907;DHT22;14472;56.880;16.658;2023-05-20T07:51:57;13.80;1.00
26907;DHT22;14472;56.880;16.658;2023-05-20T07:54:23;13.80;1.00
26907;DHT22;14472;56.880;16.658;2023-05-20T07:56:52;13.80;1.00
26907;DHT22;14472;56.880;16.658;2023-05-20T07:59:18;13.90;1.00
26907;DHT22;14472;56.880;16.658;2023-05-20T08:01:43;13.90;1.00
26907;DHT22;14472;56.880;16.658;2023-05-20T08:04:09;13.90;1.00
26907;DHT22;14472;56.880;16.658;2023-05-20T08:06:35;14.00;1.00
26907;DHT22;14472;56.880;16.658;2023-05-20T08:09:01;14.00;1.00
26907;DHT22;14472;56.880;16.658;2023-05-20T08:11:28;14.00;1.00
26907;DHT22;14472;56.880;16.658;2023-05-20T08:13:54;14.10;1.00
26907;DHT22;14472;56.880;16.658;2023-05-20T08:16:20;14.10;1.00
26907;DHT22;14472;56.880;16.658;2023-05-20T08:18:46;14.10;1.00
26907;DHT22;14472;56.880;16.658;2023-05-20T08:21:12;14.10;1.00
26907;DHT22;14472;56.880;16.658;2023-05-20T08:23:38;14.20;1.00
26907;DHT22;14472;56.880;16.658;2023-05-20T08:26:04;14.20;1.00
26907;DHT22;14472;56.880;16.658;2023-05-20T08:28:30;14.30;1.00
26907;DHT22;14472;56.880;16.658;2023-05-20T08:30:56;14.30;1.00
26907;DHT22;14472;56.880;16.658;2023-05-20T08:33:26;14.40;1.00
26907;DHT22;14472;56.880;16.658;2023-05-20T08:35:51;14.40;1.00
26907;DHT22;14472;56.880;16.658;2023-05-20T08:38:17;14.30;1.00
26907;DHT22;14472;56.880;16.658;2023-05-20T08:41:01;14.40;1.00
26907;DHT22;14472;56.880;16.658;2023-05-20T08:43:27;14.30;1.00
26907;DHT22;14472;56.880;16.658;2023-05-20T08:45:55;14.40;1.00
26907;DHT22;14472;56.880;16.658;2023-05-20T08:48:23;14.50;1.00
26907;DHT22;14472;56.880;16.658;2023-05-20T08:50:51;14.50;1.00
26907;DHT22;14472;56.880;16.658;2023-05-20T08:53:18;14.60;1.00
26907;DHT22;14472;56.880;16.658;2023-05-20T08:55:55;14.60;1.00
26907;DHT22;14472;56.880;16.658;2023-05-20T08:58:23;14.70;1.00
26907;DHT22;14472;56.880;16.658;2023-05-20T09:00:50;14.60;1.00
26907;DHT22;14472;56.880;16.658;2023-05-20T09:03:17;14.70;1.00
26907;DHT22;14472;56.880;16.658;2023-05-20T09:05:45;14.40;1.00
26907;DHT22;14472;56.880;16.658;2023-05-20T09:08:11;14.30;1.00
26907;DHT22;14472;56.880;16.658;2023-05-20T09:10:39;14.30;1.00
26907;DHT22;14472;56.880;16.658;2023-05-20T09:13:07;14.30;1.00
26907;DHT22;14472;56.880;16.658;2023-05-20T09:15:33;14.30;1.00
26907;DHT22;14472;56.880;16.658;2023-05-20T09:18:00;14.20;1.00
26907;DHT22;14472;56.880;16.658;2023-05-20T09:20:27;14.10;1.00
26907;DHT22;14472;56.880;16.658;2023-05-20T09:23:04;14.30;1.00
26907;DHT22;14472;56.880;16.658;2023-05-20T09:25:31;14.50;1.00
26907;DHT22;14472;56.880;16.658;2023-05-20T09:27:57;14.20;1.00
26907;DHT22;14472;56.880;16.658;2023-05-20T09:30:23;14.30;1.00
26907;DHT22;14472;56.880;16.658;2023-05-20T09:32:56;14.30;1.00
26907;DHT22;14472;56.880;16.658;2023-05-20T09:35:26;14.30;1.00
26907;DHT22;14472;56.880;16.658;2023-05-20T09:37:54;14.10;1.00
26907;DHT22;14472;56.880;16.658;2023-05-20T09:40:29;14.00;1.00
26907;DHT22;14472;56.880;16.658;2023-05-20T09:42:55;14.10;1.00
26907;DHT22;14472;56.880;16.658;2023-05-20T09:45:22;14.10;1.00
26907;DHT22;14472;56.880;16.658;2023-05-20T09:47:55;14.10;1.00
26907;DHT22;14472;56.880;16.658;2023-05-20T09:50:22;14.10;1.00
26907;DHT22;14472;56.880;16.658;2023-05-20T09:52:49;14.10;1.00
26907;DHT22;14472;56.880;16.658;2023-05-20T09:55:23;14.10;1.00
26907;DHT22;14472;56.880;16.658;2023-05-20T09:57:49;14.10;1.00
26907;DHT22;14472;56.880;16.658;2023-05-20T10:00:15;14.10;1.00
26907;DHT22;14472;56.880;16.658;2023-05-20T10:02:49;14.10;1.00
26907;DHT22;14472;56.880;16.658;2023-05-20T10:10:37;14.20;1.00
26907;DHT22;14472;56.880;16.658;2023-05-20T10:20:59;14.00;1.00
26907;DHT22;14472;56.880;16.658;2023-05-20T10:23:29;14.10;1.00
26907;DHT22;14472;56.880;16.658;2023-05-20T10:25:56;14.20;1.00
26907;DHT22;14472;56.880;16.658;2023-05-20T10:28:34;14.20;1.00
26907;DHT22;14472;56.880;16.658;2023-05-20T10:31:17;14.40;1.00
26907;DHT22;14472;56.880;16.658;2023-05-20T10:33:45;14.50;1.00
26907;DHT22;14472;56.880;16.658;2023-05-20T10:36:28;14.60;1.00
26907;DHT22;14472;56.880;16.658;2023-05-20T10:38:57;14.50;1.00
26907;DHT22;14472;56.880;16.658;2023-05-20T10:41:24;14.50;1.00
26907;DHT22;14472;56.880;16.658;2023-05-20T10:44:04;14.40;1.00
26907;DHT22;14472;56.880;16.658;2023-05-20T10:46:31;14.20;1.00
26907;DHT22;14472;56.880;16.658;2023-05-20T10:48:57;14.20;1.00
26907;DHT22;14472;56.880;16.658;2023-05-20T10:51:24;14.20;1.00
26907;DHT22;14472;56.880;16.658;2023-05-20T10:53:54;14.20;1.00
26907;DHT22;14472;56.880;16.658;2023-05-20T10:56:22;14.30;1.00
26907;DHT22;14472;56.880;16.658;2023-05-20T10:58:48;14.50;1.00
26907;DHT22;14472;56.880;16.658;2023-05-20T11:01:15;14.50;1.00
26907;DHT22;14472;56.880;16.658;2023-05-20T11:03:43;14.60;1.00
26907;DHT22;14472;56.880;16.658;2023-05-20T11:06:13;14.80;1.00
26907;DHT22;14472;56.880;16.658;2023-05-20T11:08:39;14.70;1.00
26907;DHT22;14472;56.880;16.658;2023-05-20T11:11:05;14.60;1.00
26907;DHT22;14472;56.880;16.658;2023-05-20T11:13:31;14.80;1.00
26907;DHT22;14472;56.880;16.658;2023-05-20T11:15:57;14.80;1.00
26907;DHT22;14472;56.880;16.658;2023-05-20T11:18:26;15.00;1.00
26907;DHT22;14472;56.880;16.658;2023-05-20T11:20:58;15.20;1.00
26907;DHT22;14472;56.880;16.658;2023-05-20T11:23:26;15.20;1.00
26907;DHT22;14472;56.880;16.658;2023-05-20T11:25:54;15.20;1.00
26907;DHT22;14472;56.880;16.658;2023-05-20T11:28:20;15.10;1.00
26907;DHT22;14472;56.880;16.658;2023-05-20T11:30:47;15.10;1.00
26907;DHT22;14472;56.880;16.658;2023-05-20T11:33:14;15.00;1.00
26907;DHT22;14472;56.880;16.658;2023-05-20T11:35:51;14.90;1.00
26907;DHT22;14472;56.880;16.658;2023-05-20T11:38:18;14.90;1.00
26907;DHT22;14472;56.880;16.658;2023-05-20T11:40:45;14.80;1.00
26907;DHT22;14472;56.880;16.658;2023-05-20T11:43:12;14.80;1.00
26907;DHT22;14472;56.880;16.658;2023-05-20T11:45:43;14.70;1.00
26907;DHT22;14472;56.880;16.658;2023-05-20T11:48:10;14.70;1.00
26907;DHT22;14472;56.880;16.658;2023-05-20T11:50:46;14.80;1.00
26907;DHT22;14472;56.880;16.658;2023-05-20T11:53:19;14.80;1.00
26907;DHT22;14472;56.880;16.658;2023-05-20T11:55:56;14.70;1.00
26907;DHT22;14472;56.880;16.658;2023-05-20T11:58:24;14.80;1.00
26907;DHT22;14472;56.880;16.658;2023-05-20T12:00:50;14.70;1.00
26907;DHT22;14472;56.880;16.658;2023-05-20T12:03:17;14.70;1.00
26907;DHT22;14472;56.880;16.658;2023-05-20T12:05:43;14.80;1.00
26907;DHT22;14472;56.880;16.658;2023-05-20T12:08:09;14.70;1.00
26907;DHT22;14472;56.880;16.658;2023-05-20T12:10:35;14.80;1.00
26907;DHT22;14472;56.880;16.658;2023-05-20T12:13:09;14.80;1.00
26907;DHT22;14472;56.880;16.658;2023-05-20T12:15:38;14.80;1.00
26907;DHT22;14472;56.880;16.658;2023-05-20T12:18:06;15.00;1.00
26907;DHT22;14472;56.880;16.658;2023-05-20T12:20:32;14.90;1.00
26907;DHT22;14472;56.880;16.658;2023-05-20T12:22:59;15.00;1.00
26907;DHT22;14472;56.880;16.658;2023-05-20T12:25:28;15.10;1.00
26907;DHT22;14472;56.880;16.658;2023-05-20T12:27:55;15.20;1.00
26907;DHT22;14472;56.880;16.658;2023-05-20T12:30:22;15.20;1.00
26907;DHT22;14472;56.880;16.658;2023-05-20T12:32:49;15.10;1.00
26907;DHT22;14472;56.880;16.658;2023-05-20T12:35:16;15.00;1.00
26907;DHT22;14472;56.880;16.658;2023-05-20T12:37:43;15.10;1.00
26907;DHT22;14472;56.880;16.658;2023-05-20T12:40:10;15.20;1.00
26907;DHT22;14472;56.880;16.658;2023-05-20T12:42:40;15.20;1.00
26907;DHT22;14472;56.880;16.658;2023-05-20T12:45:07;15.30;1.00
26907;DHT22;14472;56.880;16.658;2023-05-20T12:47:34;15.30;1.00
26907;DHT22;14472;56.880;16.658;2023-05-20T12:50:00;15.30;1.00
26907;DHT22;14472;56.880;16.658;2023-05-20T12:52:27;15.20;1.00
26907;DHT22;14472;56.880;16.658;2023-05-20T12:54:54;15.40;1.00
26907;DHT22;14472;56.880;16.658;2023-05-20T12:57:22;15.40;1.00
26907;DHT22;14472;56.880;16.658;2023-05-20T12:59:48;15.40;1.00
26907;DHT22;14472;56.880;16.658;2023-05-20T13:02:14;15.60;1.00
26907;DHT22;14472;56.880;16.658;2023-05-20T13:04:40;15.70;1.00
26907;DHT22;14472;56.880;16.658;2023-05-20T13:07:06;15.80;1.00
26907;DHT22;14472;56.880;16.658;2023-05-20T13:09:33;16.00;1.00
26907;DHT22;14472;56.880;16.658;2023-05-20T13:12:00;16.20;1.00
26907;DHT22;14472;56.880;16.658;2023-05-20T13:14:28;16.50;1.00
26907;DHT22;14472;56.880;16.658;2023-05-20T13:16:54;16.80;1.00
26907;DHT22;14472;56.880;16.658;2023-05-20T13:19:23;17.00;1.00
26907;DHT22;14472;56.880;16.658;2023-05-20T13:21:49;17.30;1.00
26907;DHT22;14472;56.880;16.658;2023-05-20T13:24:16;17.50;1.00
26907;DHT22;14472;56.880;16.658;2023-05-20T13:26:42;17.60;1.00
26907;DHT22;14472;56.880;16.658;2023-05-20T13:29:08;17.80;1.00
26907;DHT22;14472;56.880;16.658;2023-05-20T13:31:34;18.00;1.00
26907;DHT22;14472;56.880;16.658;2023-05-20T13:34:00;18.10;1.00
26907;DHT22;14472;56.880;16.658;2023-05-20T13:36:26;18.20;1.00
26907;DHT22;14472;56.880;16.658;2023-05-20T13:38:52;18.30;1.00
26907;DHT22;14472;56.880;16.658;2023-05-20T13:41:18;18.30;1.00
26907;DHT22;14472;56.880;16.658;2023-05-20T13:43:47;18.30;1.00
26907;DHT22;14472;56.880;16.658;2023-05-20T13:46:14;18.40;1.00
26907;DHT22;14472;56.880;16.658;2023-05-20T13:48:40;18.40;1.00
26907;DHT22;14472;56.880;16.658;2023-05-20T13:51:06;18.20;1.00
26907;DHT22;14472;56.880;16.658;2023-05-20T13:53:31;18.30;1.00
26907;DHT22;14472;56.880;16.658;2023-05-20T13:55:57;18.50;1.00
26907;DHT22;14472;56.880;16.658;2023-05-20T13:58:23;18.50;1.00
26907;DHT22;14472;56.880;16.658;2023-05-20T14:00:48;18.60;1.00
26907;DHT22;14472;56.880;16.658;2023-05-20T14:03:14;18.70;1.00
26907;DHT22;14472;56.880;16.658;2023-05-20T14:05:40;18.80;1.00
26907;DHT22;14472;56.880;16.658;2023-05-20T14:08:07;18.80;1.00
26907;DHT22;14472;56.880;16.658;2023-05-20T14:10:33;18.90;1.00
26907;DHT22;14472;56.880;16.658;2023-05-20T14:12:59;19.00;1.00
26907;DHT22;14472;56.880;16.658;2023-05-20T14:15:26;19.10;1.00
26907;DHT22;14472;56.880;16.658;2023-05-20T14:17:55;19.00;1.00
26907;DHT22;14472;56.880;16.658;2023-05-20T14:20:22;19.00;1.00
26907;DHT22;14472;56.880;16.658;2023-05-20T14:22:48;19.00;1.00
26907;DHT22;14472;56.880;16.658;2023-05-20T14:25:14;19.00;1.00
26907;DHT22;14472;56.880;16.658;2023-05-20T14:27:40;19.00;1.00
26907;DHT22;14472;56.880;16.658;2023-05-20T14:30:06;19.10;1.00
26907;DHT22;14472;56.880;16.658;2023-05-20T14:32:32;19.20;1.00
26907;DHT22;14472;56.880;16.658;2023-05-20T14:34:58;19.10;1.00
26907;DHT22;14472;56.880;16.658;2023-05-20T14:37:24;19.20;1.00
26907;DHT22;14472;56.880;16.658;2023-05-20T14:39:51;19.30;1.00
26907;DHT22;14472;56.880;16.658;2023-05-20T14:42:17;19.30;1.00
26907;DHT22;14472;56.880;16.658;2023-05-20T14:44:43;19.30;1.00
26907;DHT22;14472;56.880;16.658;2023-05-20T14:47:08;19.30;1.00
26907;DHT22;14472;56.880;16.658;2023-05-20T14:49:35;19.30;1.00
26907;DHT22;14472;56.880;16.658;2023-05-20T14:52:04;19.30;1.00
26907;DHT22;14472;56.880;16.658;2023-05-20T14:54:32;19.30;1.00
26907;DHT22;14472;56.880;16.658;2023-05-20T14:56:58;19.10;1.00
26907;DHT22;14472;56.880;16.658;2023-05-20T14:59:23;19.10;1.00
26907;DHT22;14472;56.880;16.658;2023-05-20T15:01:49;19.20;1.00
26907;DHT22;14472;56.880;16.658;2023-05-20T15:04:15;19.20;1.00
26907;DHT22;14472;56.880;16.658;2023-05-20T15:06:41;19.30;1.00
26907;DHT22;14472;56.880;16.658;2023-05-20T15:09:06;19.20;1.00
26907;DHT22;14472;56.880;16.658;2023-05-20T15:11:32;19.30;1.00
26907;DHT22;14472;56.880;16.658;2023-05-20T15:13:58;19.30;1.00
26907;DHT22;14472;56.880;16.658;2023-05-20T15:16:24;19.20;1.00
26907;DHT22;14472;56.880;16.658;2023-05-20T15:18:50;19.20;1.00
26907;DHT22;14472;56.880;16.658;2023-05-20T15:21:16;19.10;1.00
26907;DHT22;14472;56.880;16.658;2023-05-20T15:23:42;19.20;1.00
26907;DHT22;14472;56.880;16.658;2023-05-20T15:26:08;19.10;1.00
26907;DHT22;14472;56.880;16.658;2023-05-20T15:28:37;19.10;1.00
26907;DHT22;14472;56.880;16.658;2023-05-20T15:31:02;19.00;1.00
26907;DHT22;14472;56.880;16.658;2023-05-20T15:33:28;18.90;1.00
26907;DHT22;14472;56.880;16.658;2023-05-20T15:35:54;18.90;1.00
26907;DHT22;14472;56.880;16.658;2023-05-20T15:38:22;18.80;1.00
26907;DHT22;14472;56.880;16.658;2023-05-20T15:40:48;18.70;1.00